ペトロパブロフスク・カムチャツキー の空港の天気 - METARとTAF

ペトロパブロフスク・カムチャツキー空港 ( UHPP / PKC ) - ロシア ペトロパブロフスク・カムチャツキー
飛行場実況気象(Metar)
観測時間08/17 22:00 MAGT (08/17 11:00 UTC)
風向・風速南南西 2m/s
視程10km以上
天気現象
全天の8割程度の雲 雲底高度 1160m
気温14℃
湿度77%
気圧1007hPa
METARUHPP 171100Z 21002MPS 9999 BKN038CB 14/10 Q1007 R34L/CLRD70 NOSIG RMK QFE752/1003
過去の天気等 Google飛行場航空写真 Wunderground天気予報

過去48時間のMETAR

飛行場予報(TAF)
発表時間: 8/17 21:47 MAGT (8/17 10:47 UTC)
予報対象時間: 17日23時 MAGT ~ 19日5時 MAGT
風向・風速北北西 3m/s 瞬間風速 8m/s
視程10km以上
全天の4割程度の積乱雲 雲底高度 910m
全天の8割程度の雲 雲底高度 1520m
17日23時 MAGT ~ 18日9時 MAGT に一時的に
視程1000m
天気現象弱いしゅう雨 もや
全天の8割程度の雲 雲底高度 90m
全天を覆う積乱雲 雲底高度 610m
18日12時 MAGT ~ 18日20時 MAGT に一時的に
風向・風速南 3m/s 瞬間風速 10m/s
TAF UHPP 171047Z 1712/1818 34003G08MPS 9999 SCT030CB BKN050
TEMPO 1712/1722 1000 -SHRA BR BKN003 OVC020CB
TEMPO 1801/1809 17003G10MPS